createdAt,value
2023-01-11T00:04:14.008Z,97774.03
2023-01-11T00:09:05.772Z,97790.97
2023-01-11T00:13:57.463Z,97790.06
2023-01-11T00:18:49.169Z,97784.84
2023-01-11T00:23:40.911Z,97810.97
2023-01-11T00:28:32.896Z,97808.19
2023-01-11T00:33:24.573Z,97815.63
2023-01-11T00:38:36.216Z,97822.84
2023-01-11T00:43:46.713Z,97831.09
2023-01-11T00:48:38.334Z,97838.06
2023-01-11T00:53:29.990Z,97836.91
2023-01-11T00:58:21.622Z,97837.16
2023-01-11T01:03:13.250Z,97838.13
2023-01-11T01:08:05.017Z,97840.16
2023-01-11T01:13:15.458Z,97855.22
2023-01-11T01:18:07.066Z,97862.47
2023-01-11T01:22:58.781Z,97873.97
2023-01-11T01:27:50.462Z,97883.97
2023-01-11T01:32:42.235Z,97895.47
2023-01-11T01:37:34.020Z,97896.19
2023-01-11T01:42:25.633Z,97912.06
2023-01-11T01:47:18.225Z,97906.31
2023-01-11T01:52:11.477Z,97920.50
2023-01-11T01:57:09.252Z,97919.59
2023-01-11T02:02:01.746Z,97926.44
2023-01-11T02:06:58.685Z,97929.22
2023-01-11T02:11:51.498Z,97925.41
2023-01-11T02:16:43.191Z,97927.97
2023-01-11T02:22:04.599Z,97920.34
2023-01-11T02:27:21.289Z,97924.94
2023-01-11T02:32:19.121Z,97930.81
2023-01-11T02:37:21.147Z,97942.06
2023-01-11T02:42:40.278Z,97953.78
2023-01-11T02:47:51.363Z,97954.81
2023-01-11T02:53:19.519Z,97956.13
2023-01-11T02:58:12.786Z,97967.38
2023-01-11T03:03:07.635Z,97980.84
2023-01-11T03:08:27.862Z,97968.91
2023-01-11T03:13:37.038Z,97984.72
2023-01-11T03:18:50.709Z,97984.34
2023-01-11T03:23:49.618Z,97984.22
2023-01-11T03:29:03.060Z,97988.44
2023-01-11T03:34:08.968Z,97985.16
2023-01-11T03:39:17.128Z,97997.13
2023-01-11T03:44:12.795Z,98006.13
2023-01-11T03:49:10.618Z,98000.97
2023-01-11T03:54:06.718Z,98005.19
2023-01-11T03:58:58.528Z,98002.50
2023-01-11T04:03:50.198Z,98005.66
2023-01-11T04:08:41.886Z,98007.28
2023-01-11T04:13:34.181Z,98018.53
2023-01-11T04:18:25.823Z,98023.91
2023-01-11T04:23:17.349Z,98034.44
2023-01-11T04:28:09.047Z,98038.19
2023-01-11T04:33:00.691Z,98041.34
2023-01-11T04:37:58.783Z,98034.53
2023-01-11T04:42:50.454Z,98048.22
2023-01-11T04:47:42.221Z,98040.84
2023-01-11T04:52:34.131Z,98047.16
2023-01-11T04:57:25.923Z,98053.22
2023-01-11T05:02:18.096Z,98033.78
2023-01-11T05:07:11.137Z,98028.66
2023-01-11T05:12:03.398Z,98021.38
2023-01-11T05:16:55.007Z,98030.53
2023-01-11T05:21:46.692Z,98022.88
2023-01-11T05:26:40.427Z,98022.03
2023-01-11T05:31:33.383Z,98026.03
2023-01-11T05:36:26.023Z,98023.78
2023-01-11T05:41:19.555Z,98016.41
2023-01-11T05:46:11.223Z,98025.53
2023-01-11T05:51:02.813Z,98024.09
2023-01-11T05:55:58.970Z,98037.72
2023-01-11T06:00:52.333Z,98018.66
2023-01-11T06:05:46.016Z,98021.78
2023-01-11T06:10:38.018Z,98027.19
2023-01-11T06:15:29.617Z,98037.94
2023-01-11T06:20:21.305Z,98052.19
2023-01-11T06:25:13.063Z,98043.31
2023-01-11T06:30:05.336Z,98050.78
2023-01-11T06:34:57.006Z,98040.69
2023-01-11T06:39:48.675Z,98029.34
2023-01-11T06:44:40.380Z,98030.84
2023-01-11T06:49:32.049Z,98027.34
2023-01-11T06:54:25.675Z,98041.03
2023-01-11T06:59:17.324Z,98044.53
2023-01-11T07:04:09.288Z,98048.06
2023-01-11T07:09:00.956Z,98058.81
2023-01-11T07:13:52.719Z,98054.94
2023-01-11T07:18:46.572Z,98055.75
2023-01-11T07:23:38.392Z,98060.53
2023-01-11T07:28:30.765Z,98062.72
2023-01-11T07:33:22.621Z,98064.22
2023-01-11T07:38:14.252Z,98077.06
2023-01-11T07:43:14.750Z,98084.31
2023-01-11T07:48:10.175Z,98090.88
2023-01-11T07:53:01.832Z,98084.84
2023-01-11T07:57:57.406Z,98092.44
2023-01-11T08:02:53.256Z,98087.88
2023-01-11T08:07:45.176Z,98091.38
2023-01-11T08:13:01.449Z,98096.75
2023-01-11T08:17:53.148Z,98098.19
2023-01-11T08:22:44.851Z,98105.81
2023-01-11T08:27:36.807Z,98106.03
2023-01-11T08:32:29.261Z,98114.09
2023-01-11T08:37:21.023Z,98109.75
2023-01-11T08:42:12.665Z,98107.69
2023-01-11T08:47:04.379Z,98100.44
2023-01-11T08:51:56.581Z,98110.16
2023-01-11T08:56:48.320Z,98122.09
2023-01-11T09:01:40.116Z,98131.81
2023-01-11T09:06:31.856Z,98133.94
2023-01-11T09:11:42.114Z,98116.88
2023-01-11T09:16:34.148Z,98106.59
2023-01-11T09:21:25.867Z,98101.03
2023-01-11T09:26:17.810Z,98092.88
2023-01-11T09:31:09.488Z,98089.63
2023-01-11T09:36:03.051Z,98098.78
2023-01-11T09:40:59.213Z,98116.69
2023-01-11T09:45:53.084Z,98096.06
2023-01-11T09:50:48.436Z,98103.69
2023-01-11T09:55:46.587Z,98103.09
2023-01-11T10:00:44.109Z,98123.97
2023-01-11T10:05:55.976Z,98118.69
2023-01-11T10:18:30.187Z,98123.28
2023-01-11T10:22:01.792Z,98121.75
2023-01-11T10:27:02.151Z,98122.69
2023-01-11T10:32:22.246Z,98112.41
2023-01-11T10:37:46.815Z,98121.44
2023-01-11T10:42:47.435Z,98106.56
2023-01-11T10:47:51.322Z,98093.03
2023-01-11T10:53:00.165Z,98084.38
2023-01-11T10:57:59.288Z,98080.34
2023-01-11T11:03:06.549Z,98060.34
2023-01-11T11:08:05.941Z,98067.56
2023-01-11T11:13:21.542Z,98050.88
2023-01-11T11:18:13.552Z,98057.66
2023-01-11T11:23:05.507Z,98033.81
2023-01-11T11:28:05.953Z,98030.81
2023-01-11T11:33:04.199Z,98029.75
2023-01-11T11:37:56.078Z,98031.38
2023-01-11T11:42:47.737Z,98027.63
2023-01-11T11:47:39.429Z,98021.66
2023-01-11T11:52:31.103Z,98023.50
2023-01-11T11:57:28.560Z,98016.25
2023-01-11T12:02:26.647Z,98007.06
2023-01-11T12:07:22.552Z,97988.31
2023-01-11T12:12:20.176Z,97982.00
2023-01-11T12:17:24.661Z,97977.59
2023-01-11T12:22:16.290Z,97968.34
2023-01-11T12:27:16.841Z,97959.34
2023-01-11T12:32:30.589Z,97952.06
2023-01-11T12:37:25.416Z,97964.75
2023-01-11T12:42:41.192Z,97960.06
2023-01-11T12:47:52.809Z,97961.28
2023-01-11T12:52:59.464Z,97933.06
2023-01-11T12:58:21.959Z,97922.56
2023-01-11T13:03:41.446Z,97897.19
2023-01-11T13:08:36.016Z,97897.84
2023-01-11T13:13:57.334Z,97912.66
2023-01-11T13:19:00.810Z,97898.75
2023-01-11T13:24:02.417Z,97867.59
2023-01-11T13:29:04.731Z,97873.47
2023-01-11T13:34:25.327Z,97871.38
2023-01-11T13:39:29.890Z,97868.03
2023-01-11T13:44:37.004Z,97850.94
2023-01-11T13:49:51.683Z,97855.03
2023-01-11T13:54:58.955Z,97858.06
2023-01-11T13:59:57.732Z,97841.72
2023-01-11T14:04:59.207Z,97855.91
2023-01-11T14:10:07.088Z,97848.06
2023-01-11T14:15:28.852Z,97835.41
2023-01-11T14:20:38.048Z,97835.16
2023-01-11T14:25:46.303Z,97860.59
2023-01-11T14:30:57.474Z,97861.97
2023-01-11T14:35:56.198Z,97845.81
2023-01-11T14:40:56.930Z,97826.63
2023-01-11T14:46:20.705Z,97845.59
2023-01-11T14:51:51.346Z,97840.34
2023-01-11T14:56:42.896Z,97847.28
2023-01-11T15:02:03.623Z,97824.19
2023-01-11T15:06:56.639Z,97854.41
2023-01-11T15:11:48.356Z,97845.59
2023-01-11T15:16:58.724Z,97849.44
2023-01-11T15:21:55.583Z,97847.59
2023-01-11T15:26:49.324Z,97851.66
2023-01-11T15:32:02.241Z,97853.16
2023-01-11T15:37:03.607Z,97838.16
2023-01-11T15:42:17.589Z,97854.44
2023-01-11T15:47:31.551Z,97864.25
2023-01-11T15:52:54.067Z,97877.94
2023-01-11T15:58:15.020Z,97891.50
2023-01-11T16:03:44.979Z,97895.69
2023-01-11T16:08:43.142Z,97906.13
2023-01-11T16:14:23.050Z,97915.34
2023-01-11T16:19:20.033Z,97911.03
2023-01-11T16:24:19.809Z,97910.69
2023-01-11T16:29:18.799Z,97913.97
2023-01-11T16:34:17.964Z,97937.38
2023-01-11T16:39:13.897Z,97932.25
2023-01-11T16:44:09.119Z,97942.53
2023-01-11T16:49:11.028Z,97938.81
2023-01-11T16:54:05.051Z,97930.63
2023-01-11T16:59:30.553Z,97947.75
2023-01-11T17:04:35.734Z,97967.34
2023-01-11T17:09:29.592Z,97979.72
2023-01-11T17:14:36.560Z,97997.56
2023-01-11T17:19:31.512Z,97981.94
2023-01-11T17:24:24.979Z,97990.88
2023-01-11T17:29:22.994Z,97998.38
2023-01-11T17:34:24.035Z,97996.97
2023-01-11T17:39:32.063Z,97999.31
2023-01-11T17:44:43.679Z,97988.53
2023-01-11T17:49:38.047Z,97998.84
2023-01-11T17:54:30.007Z,98003.19
2023-01-11T17:59:29.946Z,98002.13
2023-01-11T18:04:23.284Z,98014.91
2023-01-11T18:09:40.283Z,98028.16
2023-01-11T18:14:39.439Z,98026.50
2023-01-11T18:19:42.569Z,98023.78
2023-01-11T18:24:35.192Z,98015.94
2023-01-11T18:29:35.889Z,98008.44
2023-01-11T18:34:27.577Z,98020.06
2023-01-11T18:39:19.157Z,98013.00
2023-01-11T18:44:12.149Z,98003.41
2023-01-11T18:49:03.878Z,98012.06
2023-01-11T18:53:55.574Z,98012.63
2023-01-11T18:58:47.369Z,98015.94
2023-01-11T19:03:39.206Z,98021.91
2023-01-11T19:08:31.732Z,98023.41
2023-01-11T19:13:23.614Z,98020.25
2023-01-11T19:18:16.374Z,98031.03
2023-01-11T19:23:08.556Z,98027.53
2023-01-11T19:28:02.594Z,98020.84
2023-01-11T19:32:54.962Z,98011.69
2023-01-11T19:37:46.765Z,98000.09
2023-01-11T19:42:39.849Z,97998.44
2023-01-11T19:47:31.570Z,97986.28
2023-01-11T19:52:23.279Z,97986.28
2023-01-11T19:57:19.000Z,97975.97
2023-01-11T20:02:15.333Z,97971.63
2023-01-11T20:07:11.037Z,97972.19
2023-01-11T20:12:02.718Z,97968.38
2023-01-11T20:16:54.634Z,97967.53
2023-01-11T20:21:46.374Z,97951.81
2023-01-11T20:26:38.165Z,97936.72
2023-01-11T20:31:32.406Z,97934.03
2023-01-11T20:36:25.237Z,97914.81
2023-01-11T20:41:38.065Z,97900.28
2023-01-11T20:46:29.763Z,97884.09
2023-01-11T20:51:21.390Z,97880.00
2023-01-11T20:56:13.997Z,97864.06
2023-01-11T21:01:10.902Z,97852.47
2023-01-11T21:06:07.257Z,97830.69
2023-01-11T21:11:07.221Z,97813.94
2023-01-11T21:15:58.998Z,97800.47
2023-01-11T21:20:50.872Z,97785.34
2023-01-11T21:25:43.007Z,97770.00
2023-01-11T21:30:34.738Z,97749.50
2023-01-11T21:35:27.193Z,97740.59
2023-01-11T21:40:19.111Z,97727.69
2023-01-11T21:45:11.569Z,97714.00
2023-01-11T21:50:03.412Z,97688.66
2023-01-11T21:54:55.138Z,97669.28
2023-01-11T21:59:46.813Z,97658.84
2023-01-11T22:04:39.043Z,97644.88
2023-01-11T22:09:32.313Z,97623.38
2023-01-11T22:14:23.944Z,97595.44
2023-01-11T22:19:16.044Z,97580.16
2023-01-11T22:24:11.877Z,97572.13
2023-01-11T22:29:14.823Z,97552.50
2023-01-11T22:34:06.964Z,97532.06
2023-01-11T22:38:58.681Z,97499.75
2023-01-11T22:43:50.616Z,97468.53
2023-01-11T22:48:42.599Z,97432.97
2023-01-11T22:53:42.048Z,97412.19
2023-01-11T22:58:35.943Z,97387.34
2023-01-11T23:03:27.624Z,97378.69
2023-01-11T23:08:19.279Z,97360.91
2023-01-11T23:13:29.292Z,97361.69
2023-01-11T23:18:21.525Z,97359.31
2023-01-11T23:23:13.550Z,97345.00
2023-01-11T23:28:05.205Z,97343.94
2023-01-11T23:32:56.833Z,97342.34
2023-01-11T23:37:50.402Z,97328.09
2023-01-11T23:42:42.080Z,97319.78
2023-01-11T23:47:33.726Z,97322.00
2023-01-11T23:52:28.660Z,97308.84
2023-01-11T23:57:21.551Z,97301.59
